Bayamon, PR (00956)

12:26 AM AST on March 27, 2015 (GMT -0400)
La Plata | | Change Station
CLOSE
Current Station
Personal Weather Station
Location: Cayey, CAYEY
Elevation: 1270 ft
Nearby Weather Stations

Elev 1270 ft 18.13 °N, 66.15 °W | Updated 47 seconds ago

Scattered Clouds
Scattered Clouds
70.8 °F
Feels Like 70.8 °F
N
3.0
Wind Variable Wind from East
Gusts 4.0 mph

Today
High -- | Low -- °F
--% Chance of Precip.
Yesterday
High -- | Low -- °F
Precip. -- in
6:23 AM 6:36 PM
Waxing Crescent, 49% visible
Pressure 30.08 in
Visibility 10.0 miles
Clouds Few 2700 ft
Scattered Clouds 4300 ft
Scattered Clouds 6000 ft
Dew Point 66 °F
Humidity 85%
Rainfall 0.00 in
Snow Depth Not available.
UV 0 out of 12
Pollen Not available.
Air Quality Not available.
Flu Activity Not available.
METAR TJSJ 270356Z 11005KT 10SM FEW027 SCT043 SCT060 25/22 A3008 RMK AO2 RAB49E56 SLP185 VCSH E P0000 T02500217 402940239

More Conditions Fewer Conditions

Pressure 30.08 in
Visibility 10.0 miles
Clouds Few 2700 ft
Scattered Clouds 4300 ft
Scattered Clouds 6000 ft
Dew Point 66 °F
Humidity 85%
Rainfall 0.00 in
Snow Depth Not available.
UV 0 out of 12
Pollen Not available.
Air Quality Not available.
Flu Activity Not available.
METAR TJSJ 270356Z 11005KT 10SM FEW027 SCT043 SCT060 25/22 A3008 RMK AO2 RAB49E56 SLP185 VCSH E P0000 T02500217 402940239

More Conditions Fewer Conditions

10-Day Weather Forecast

Almanac

Astronomy

Mar. 27, 2015 Rise Set
Actual Time
Civil Twilight
Nautical Twilight
Astronomical Twilight
Moon
Length of Visible Light
Length of Day
Tomorrow will be .
, % of the Moon is Illuminated

Today's Extremes

State Highs State Lows

Community

WunderPhotos

Upload Photos

1,808,706 photos uploaded!

WunderBlogs® & News

Nearby

Air Quality

  Air Quality AQ Index Pollutant
Not available.

Snow Depth

Station Depth Elevation

Earthquake Activity

City Distance Mag. Time & Date
Minimum magnitude displayed is 2.5.

Coastal Water Temperatures

Place Temperature

Stations

Nearby Weather Stations

Station Location Temp. Windchill Dew Point Humidity Wind Precip. Elev Updated Type